createdAt,value
2023-04-07T00:02:44.379Z,17.70
2023-04-07T00:05:33.637Z,17.67
2023-04-07T00:08:23.767Z,18.80
2023-04-07T00:11:13.093Z,19.30
2023-04-07T00:14:02.115Z,17.80
2023-04-07T00:16:50.823Z,18.73
2023-04-07T00:19:39.531Z,19.17
2023-04-07T00:22:28.541Z,19.57
2023-04-07T00:25:19.057Z,19.00
2023-04-07T00:28:07.804Z,19.53
2023-04-07T00:30:56.623Z,20.17
2023-04-07T00:33:45.403Z,19.43
2023-04-07T00:36:34.273Z,19.27
2023-04-07T00:39:23.056Z,20.13
2023-04-07T00:42:13.291Z,19.60
2023-04-07T00:45:02.125Z,20.30
2023-04-07T00:47:50.983Z,19.37
2023-04-07T00:50:39.802Z,20.10
2023-04-07T00:53:28.592Z,20.07
2023-04-07T00:56:17.452Z,20.33
2023-04-07T00:59:07.658Z,20.43
2023-04-07T01:02:04.092Z,20.00
2023-04-07T01:04:57.609Z,19.67
2023-04-07T01:07:56.009Z,21.17
2023-04-07T01:10:51.629Z,19.93
2023-04-07T01:13:47.445Z,20.83
2023-04-07T01:16:49.361Z,21.10
2023-04-07T01:19:44.572Z,20.07
2023-04-07T01:22:38.730Z,20.67
2023-04-07T01:25:43.955Z,19.63
2023-04-07T01:28:51.075Z,21.40
2023-04-07T01:31:43.226Z,21.13
2023-04-07T01:34:34.014Z,20.37
2023-04-07T01:37:24.260Z,21.93
2023-04-07T01:40:15.673Z,21.77
2023-04-07T01:43:04.886Z,22.00
2023-04-07T01:45:55.119Z,22.27
2023-04-07T01:48:46.887Z,22.23
2023-04-07T01:51:36.941Z,23.57
2023-04-07T01:54:26.303Z,22.13
2023-04-07T01:57:15.518Z,22.43
2023-04-07T02:00:05.305Z,22.57
2023-04-07T02:03:10.469Z,23.97
2023-04-07T02:06:08.731Z,25.00
2023-04-07T02:09:06.910Z,23.30
2023-04-07T02:11:58.596Z,23.47
2023-04-07T02:14:48.095Z,24.53
2023-04-07T02:17:41.251Z,25.47
2023-04-07T02:20:31.195Z,25.47
2023-04-07T02:23:21.379Z,25.90
2023-04-07T02:26:10.543Z,24.83
2023-04-07T02:28:59.406Z,24.47
2023-04-07T02:31:48.146Z,25.87
2023-04-07T02:34:38.193Z,25.83
2023-04-07T02:37:28.703Z,26.83
2023-04-07T02:40:19.009Z,27.50
2023-04-07T02:43:07.700Z,26.57
2023-04-07T02:45:56.562Z,26.07
2023-04-07T02:48:45.758Z,27.50
2023-04-07T02:51:34.676Z,27.33
2023-04-07T02:54:23.486Z,27.77
2023-04-07T02:57:14.252Z,27.53
2023-04-07T03:00:03.949Z,28.13
2023-04-07T03:03:08.823Z,28.90
2023-04-07T03:06:00.952Z,29.17
2023-04-07T03:08:49.928Z,28.20
2023-04-07T03:11:39.669Z,29.27
2023-04-07T03:14:29.839Z,28.47
2023-04-07T03:17:18.839Z,29.67
2023-04-07T03:20:11.169Z,29.33
2023-04-07T03:23:00.846Z,30.03
2023-04-07T03:25:51.689Z,30.30
2023-04-07T03:28:40.987Z,30.03
2023-04-07T03:31:31.755Z,30.87
2023-04-07T03:34:20.862Z,29.20
2023-04-07T03:37:09.832Z,29.93
2023-04-07T03:39:59.725Z,30.03
2023-04-07T03:42:52.840Z,29.97
2023-04-07T03:45:41.832Z,30.47
2023-04-07T03:48:32.934Z,31.50
2023-04-07T03:51:29.794Z,30.53
2023-04-07T03:54:20.771Z,31.37
2023-04-07T03:57:09.728Z,32.80
2023-04-07T04:00:04.623Z,31.83
2023-04-07T04:03:05.809Z,32.60
2023-04-07T04:05:58.303Z,32.27
2023-04-07T04:08:51.116Z,31.90
2023-04-07T04:11:41.678Z,31.63
2023-04-07T04:14:31.084Z,31.00
2023-04-07T04:17:23.020Z,33.23
2023-04-07T04:20:12.595Z,31.13
2023-04-07T04:23:09.276Z,31.47
2023-04-07T04:26:00.356Z,31.70
2023-04-07T04:28:50.413Z,31.33
2023-04-07T04:31:41.718Z,30.87
2023-04-07T04:34:32.303Z,30.63
2023-04-07T04:37:21.624Z,31.63
2023-04-07T04:40:13.283Z,30.60
2023-04-07T04:43:06.936Z,30.53
2023-04-07T04:45:58.294Z,32.00
2023-04-07T04:48:49.991Z,33.50
2023-04-07T04:51:39.969Z,32.77
2023-04-07T04:54:35.453Z,30.87
2023-04-07T04:57:25.813Z,31.57
2023-04-07T05:00:15.736Z,32.07
2023-04-07T05:03:07.140Z,32.33
2023-04-07T05:06:00.163Z,31.00
2023-04-07T05:08:49.168Z,32.97
2023-04-07T05:11:42.286Z,33.30
2023-04-07T05:14:33.106Z,32.50
2023-04-07T05:17:27.210Z,33.13
2023-04-07T05:20:16.523Z,32.70
2023-04-07T05:23:05.456Z,31.63
2023-04-07T05:25:55.869Z,34.13
2023-04-07T05:28:45.453Z,37.90
2023-04-07T05:31:41.559Z,34.13
2023-04-07T05:34:34.489Z,34.20
2023-04-07T05:37:23.194Z,33.27
2023-04-07T05:40:14.086Z,33.80
2023-04-07T05:43:03.434Z,31.37
2023-04-07T05:45:54.154Z,33.73
2023-04-07T05:48:45.590Z,32.03
2023-04-07T05:51:35.633Z,34.47
2023-04-07T05:54:30.355Z,32.40
2023-04-07T05:57:20.168Z,32.87
2023-04-07T06:00:12.078Z,32.57
2023-04-07T06:03:04.049Z,31.10
2023-04-07T06:06:01.524Z,31.67
2023-04-07T06:08:50.925Z,33.83
2023-04-07T06:11:39.784Z,32.40
2023-04-07T06:14:28.727Z,31.53
2023-04-07T06:17:17.603Z,31.07
2023-04-07T06:20:09.811Z,31.57
2023-04-07T06:22:59.950Z,31.73
2023-04-07T06:25:52.045Z,31.90
2023-04-07T06:28:41.272Z,32.13
2023-04-07T06:31:30.449Z,31.40
2023-04-07T06:34:19.503Z,31.70
2023-04-07T06:37:08.667Z,30.80
2023-04-07T06:39:58.908Z,30.83
2023-04-07T06:42:47.655Z,30.83
2023-04-07T06:45:47.697Z,30.37
2023-04-07T06:48:36.517Z,31.23
2023-04-07T06:51:25.148Z,31.37
2023-04-07T06:54:14.940Z,29.53
2023-04-07T06:57:06.862Z,31.17
2023-04-07T06:59:55.751Z,30.90
2023-04-07T07:02:44.646Z,31.57
2023-04-07T07:05:33.967Z,32.47
2023-04-07T07:08:22.968Z,30.23
2023-04-07T07:11:12.181Z,32.37
2023-04-07T07:14:02.825Z,30.37
2023-04-07T07:16:51.927Z,30.20
2023-04-07T07:19:40.650Z,29.70
2023-04-07T07:22:29.391Z,29.00
2023-04-07T07:25:18.802Z,30.37
2023-04-07T07:28:07.678Z,29.37
2023-04-07T07:30:58.278Z,29.83
2023-04-07T07:33:49.233Z,30.07
2023-04-07T07:36:38.378Z,28.43
2023-04-07T07:39:27.255Z,28.10
2023-04-07T07:42:16.451Z,29.47
2023-04-07T07:45:05.806Z,28.57
2023-04-07T07:47:56.120Z,28.93
2023-04-07T07:50:45.915Z,28.27
2023-04-07T07:53:35.032Z,28.73
2023-04-07T07:56:24.075Z,27.80
2023-04-07T07:59:12.993Z,27.87
2023-04-07T08:02:02.187Z,27.73
2023-04-07T08:04:52.542Z,27.23
2023-04-07T08:07:43.223Z,26.03
2023-04-07T08:10:32.252Z,26.93
2023-04-07T08:13:21.017Z,27.57
2023-04-07T08:16:10.023Z,26.93
2023-04-07T08:18:58.912Z,26.17
2023-04-07T08:21:49.820Z,26.75
2023-04-07T08:24:38.795Z,26.70
2023-04-07T08:27:27.589Z,24.67
2023-04-07T08:30:17.031Z,24.35
2023-04-07T08:33:07.842Z,24.45
2023-04-07T08:35:56.989Z,23.02
2023-04-07T08:38:47.204Z,24.77
2023-04-07T08:41:39.536Z,22.73
2023-04-07T08:44:31.124Z,23.38
2023-04-07T08:47:20.270Z,22.00
2023-04-07T08:50:11.272Z,22.65
2023-04-07T08:53:06.386Z,23.80
2023-04-07T08:55:58.117Z,22.20
2023-04-07T08:58:47.995Z,22.52
2023-04-07T09:01:38.193Z,22.52
2023-04-07T09:04:27.728Z,21.77
2023-04-07T09:07:16.564Z,21.95
2023-04-07T09:10:06.576Z,21.95
2023-04-07T09:12:56.734Z,21.52
2023-04-07T09:15:45.699Z,21.95
2023-04-07T09:18:34.965Z,22.10
2023-04-07T09:21:23.834Z,21.17
2023-04-07T09:24:23.404Z,21.08
2023-04-07T09:27:17.517Z,22.08
2023-04-07T09:30:16.041Z,21.98
2023-04-07T09:33:05.242Z,21.60
2023-04-07T09:35:54.827Z,22.10
2023-04-07T09:38:46.206Z,21.00
2023-04-07T09:41:35.012Z,21.48
2023-04-07T09:44:24.735Z,20.65
2023-04-07T09:47:15.332Z,20.75
2023-04-07T09:50:07.384Z,19.73
2023-04-07T09:52:56.694Z,20.23
2023-04-07T09:55:46.404Z,20.38
2023-04-07T09:58:35.352Z,20.38
2023-04-07T10:01:24.176Z,20.27
2023-04-07T10:04:14.897Z,20.52
2023-04-07T10:07:04.571Z,22.67
2023-04-07T10:09:53.693Z,23.58
2023-04-07T10:12:43.674Z,24.13
2023-04-07T10:15:33.151Z,25.08
2023-04-07T10:18:23.650Z,25.55
2023-04-07T10:21:16.399Z,24.88
2023-04-07T10:24:20.198Z,24.40
2023-04-07T10:27:14.289Z,24.83
2023-04-07T10:30:05.201Z,23.27
2023-04-07T10:32:55.517Z,20.55
2023-04-07T10:36:07.414Z,22.08
2023-04-07T10:39:22.925Z,19.52
2023-04-07T10:42:48.954Z,20.65
2023-04-07T10:45:54.418Z,20.52
2023-04-07T10:48:43.318Z,19.70
2023-04-07T10:51:32.319Z,18.98
2023-04-07T10:54:29.025Z,18.35
2023-04-07T10:57:18.559Z,17.20
2023-04-07T11:00:17.931Z,18.17
2023-04-07T11:03:14.155Z,17.95
2023-04-07T11:06:08.507Z,17.70
2023-04-07T11:08:57.584Z,16.33
2023-04-07T11:11:48.884Z,16.17
2023-04-07T11:14:38.238Z,15.65
2023-04-07T11:17:28.286Z,15.43
2023-04-07T11:20:17.079Z,15.88
2023-04-07T11:23:05.803Z,15.00
2023-04-07T11:26:01.369Z,14.70
2023-04-07T11:28:53.014Z,15.07
2023-04-07T11:31:41.945Z,15.73
2023-04-07T11:34:31.956Z,15.40
2023-04-07T11:37:21.768Z,15.70
2023-04-07T11:40:13.019Z,15.05
2023-04-07T11:43:02.658Z,15.65
2023-04-07T11:46:10.927Z,14.18
2023-04-07T11:49:11.131Z,14.38
2023-04-07T11:52:01.102Z,13.95
2023-04-07T11:54:50.699Z,14.07
2023-04-07T11:57:39.506Z,14.00
2023-04-07T12:00:28.268Z,13.02
2023-04-07T12:03:18.987Z,14.02
2023-04-07T12:06:08.675Z,13.32
2023-04-07T12:08:57.475Z,13.52
2023-04-07T12:11:51.123Z,12.55
2023-04-07T12:14:40.019Z,13.23
2023-04-07T12:17:28.854Z,13.57
2023-04-07T12:20:19.317Z,14.13
2023-04-07T12:23:08.060Z,13.95
2023-04-07T12:25:56.792Z,13.30
2023-04-07T12:28:45.543Z,14.23
2023-04-07T12:31:34.647Z,13.73
2023-04-07T12:34:23.416Z,14.40
2023-04-07T12:37:13.703Z,14.57
2023-04-07T12:40:02.460Z,14.45
2023-04-07T12:42:51.206Z,13.30
2023-04-07T12:45:40.058Z,12.38
2023-04-07T12:48:28.848Z,9.43
2023-04-07T12:51:17.691Z,9.55
2023-04-07T12:54:08.106Z,6.43
2023-04-07T12:56:57.542Z,6.65
2023-04-07T12:59:46.603Z,5.38
2023-04-07T13:02:38.279Z,3.53
2023-04-07T13:05:27.502Z,3.22
2023-04-07T13:08:16.426Z,3.25
2023-04-07T13:11:07.294Z,3.30
2023-04-07T13:13:57.928Z,3.50
2023-04-07T13:16:48.832Z,3.10
2023-04-07T13:19:37.750Z,3.13
2023-04-07T13:22:26.813Z,3.00
2023-04-07T13:25:16.099Z,2.67
2023-04-07T13:28:06.761Z,3.05
2023-04-07T13:30:55.636Z,3.42
2023-04-07T13:33:44.492Z,3.10
2023-04-07T13:36:33.809Z,3.45
2023-04-07T13:39:22.730Z,3.13
2023-04-07T13:42:12.698Z,3.33
2023-04-07T13:45:03.328Z,3.03
2023-04-07T13:47:52.434Z,3.72
2023-04-07T13:50:42.224Z,3.40
2023-04-07T13:53:31.012Z,3.35
2023-04-07T13:56:20.045Z,3.03
2023-04-07T13:59:09.587Z,3.28
2023-04-07T14:02:00.494Z,3.20
2023-04-07T14:04:49.560Z,3.03
2023-04-07T14:07:38.483Z,3.53
2023-04-07T14:10:27.414Z,3.65
2023-04-07T14:13:16.880Z,3.83
2023-04-07T14:16:06.515Z,3.85
2023-04-07T14:19:22.489Z,3.85
2023-04-07T14:22:11.309Z,4.03
2023-04-07T14:25:00.833Z,3.92
2023-04-07T14:27:49.981Z,3.95
2023-04-07T14:30:39.309Z,3.80
2023-04-07T14:33:28.070Z,3.80
2023-04-07T14:36:18.415Z,3.47
2023-04-07T14:39:07.256Z,3.25
2023-04-07T14:41:56.179Z,3.35
2023-04-07T14:44:44.975Z,3.53
2023-04-07T14:47:33.947Z,3.20
2023-04-07T14:50:23.966Z,3.00
2023-04-07T14:53:14.595Z,2.95
2023-04-07T14:56:06.007Z,3.22
2023-04-07T14:58:54.884Z,3.33
2023-04-07T15:01:43.627Z,3.25
2023-04-07T15:04:32.624Z,3.20
2023-04-07T15:07:21.469Z,3.35
2023-04-07T15:10:14.500Z,3.10
2023-04-07T15:13:03.944Z,3.42
2023-04-07T15:15:52.852Z,3.60
2023-04-07T15:18:44.887Z,3.25
2023-04-07T15:21:33.944Z,3.50
2023-04-07T15:24:22.817Z,3.70
2023-04-07T15:27:13.184Z,3.50
2023-04-07T15:30:02.322Z,3.92
2023-04-07T15:33:00.783Z,3.35
2023-04-07T15:35:49.635Z,3.50
2023-04-07T15:38:40.507Z,3.78
2023-04-07T15:41:29.345Z,3.70
2023-04-07T15:44:20.244Z,3.58
2023-04-07T15:47:11.901Z,3.55
2023-04-07T15:50:00.982Z,3.38
2023-04-07T15:52:49.793Z,3.47
2023-04-07T15:55:38.848Z,3.50
2023-04-07T15:58:27.568Z,3.90
2023-04-07T16:01:17.862Z,3.97
2023-04-07T16:04:06.850Z,3.75
2023-04-07T16:06:56.094Z,3.70
2023-04-07T16:09:44.818Z,3.45
2023-04-07T16:12:34.511Z,3.30
2023-04-07T16:15:38.759Z,3.60
2023-04-07T16:18:30.634Z,3.30
2023-04-07T16:21:19.494Z,2.92
2023-04-07T16:24:08.267Z,2.70
2023-04-07T16:26:57.222Z,3.03
2023-04-07T16:29:45.956Z,3.10
2023-04-07T16:32:34.889Z,2.97
2023-04-07T16:35:25.134Z,2.90
2023-04-07T16:38:13.990Z,3.05
2023-04-07T16:41:04.824Z,3.10
2023-04-07T16:43:53.697Z,2.92
2023-04-07T16:46:42.391Z,3.20
2023-04-07T16:49:31.283Z,2.80
2023-04-07T16:52:21.511Z,3.13
2023-04-07T16:55:13.779Z,3.22
2023-04-07T16:58:02.621Z,2.97
2023-04-07T17:00:51.921Z,2.85
2023-04-07T17:03:41.626Z,3.00
2023-04-07T17:06:31.130Z,3.00
2023-04-07T17:09:21.514Z,3.53
2023-04-07T17:12:11.105Z,3.05
2023-04-07T17:14:59.872Z,3.65
2023-04-07T17:17:48.667Z,3.30
2023-04-07T17:20:37.552Z,3.40
2023-04-07T17:23:28.371Z,3.40
2023-04-07T17:26:18.681Z,3.78
2023-04-07T17:29:07.430Z,3.33
2023-04-07T17:31:57.231Z,3.85
2023-04-07T17:34:46.162Z,3.97
2023-04-07T17:37:35.123Z,3.40
2023-04-07T17:40:24.559Z,3.78
2023-04-07T17:43:14.712Z,3.53
2023-04-07T17:46:04.697Z,3.15
2023-04-07T17:48:54.535Z,3.80
2023-04-07T17:51:43.200Z,4.30
2023-04-07T17:54:32.097Z,4.30
2023-04-07T17:57:20.893Z,4.18
2023-04-07T18:00:12.393Z,4.20
2023-04-07T18:03:04.259Z,3.90
2023-04-07T18:05:53.499Z,3.83
2023-04-07T18:08:42.920Z,3.78
2023-04-07T18:11:32.549Z,3.70
2023-04-07T18:14:21.621Z,4.20
2023-04-07T18:17:13.015Z,4.00
2023-04-07T18:20:02.249Z,3.90
2023-04-07T18:22:52.799Z,3.90
2023-04-07T18:25:41.866Z,3.58
2023-04-07T18:28:31.308Z,3.67
2023-04-07T18:31:20.400Z,3.83
2023-04-07T18:34:11.511Z,4.07
2023-04-07T18:37:00.414Z,4.00
2023-04-07T18:39:49.824Z,3.40
2023-04-07T18:42:38.848Z,3.55
2023-04-07T18:45:28.020Z,3.88
2023-04-07T18:48:17.805Z,4.10
2023-04-07T18:51:08.767Z,3.92
2023-04-07T18:53:57.718Z,3.95
2023-04-07T18:56:46.592Z,4.28
2023-04-07T18:59:35.502Z,4.63
2023-04-07T19:02:24.598Z,4.60
2023-04-07T19:05:14.241Z,4.55
2023-04-07T19:08:04.555Z,5.63
2023-04-07T19:10:53.373Z,5.32
2023-04-07T19:13:42.515Z,5.60
2023-04-07T19:16:31.443Z,5.35
2023-04-07T19:19:20.447Z,6.15
2023-04-07T19:22:09.855Z,6.25
2023-04-07T19:25:00.122Z,6.13
2023-04-07T19:27:48.862Z,6.00
2023-04-07T19:30:37.723Z,6.38
2023-04-07T19:33:26.556Z,6.20
2023-04-07T19:36:15.557Z,6.18
2023-04-07T19:39:05.608Z,6.38
2023-04-07T19:41:56.267Z,6.47
2023-04-07T19:44:44.964Z,6.55
2023-04-07T19:47:34.113Z,6.30
2023-04-07T19:50:23.076Z,6.97
2023-04-07T19:53:15.996Z,7.10
2023-04-07T19:56:05.456Z,7.00
2023-04-07T19:58:55.734Z,7.55
2023-04-07T20:01:44.798Z,6.57
2023-04-07T20:04:34.583Z,6.28
2023-04-07T20:07:23.319Z,5.75
2023-04-07T20:10:15.873Z,5.05
2023-04-07T20:13:06.388Z,5.30
2023-04-07T20:15:56.763Z,4.82
2023-04-07T20:18:45.519Z,4.95
2023-04-07T20:21:34.363Z,4.82
2023-04-07T20:24:23.256Z,4.70
2023-04-07T20:27:14.694Z,4.70
2023-04-07T20:30:04.137Z,4.38
2023-04-07T20:32:54.780Z,5.38
2023-04-07T20:35:44.041Z,4.53
2023-04-07T20:38:33.522Z,4.53
2023-04-07T20:41:23.842Z,4.18
2023-04-07T20:44:13.456Z,4.15
2023-04-07T20:47:09.021Z,4.45
2023-04-07T20:50:00.604Z,4.55
2023-04-07T20:52:49.555Z,4.72
2023-04-07T20:55:38.503Z,4.90
2023-04-07T20:58:27.717Z,4.45
2023-04-07T21:01:16.768Z,4.63
2023-04-07T21:04:06.087Z,5.05
2023-04-07T21:06:56.363Z,4.93
2023-04-07T21:09:45.206Z,5.45
2023-04-07T21:12:34.057Z,5.45
2023-04-07T21:15:23.108Z,5.30
2023-04-07T21:18:12.548Z,6.20
2023-04-07T21:21:03.160Z,6.53
2023-04-07T21:23:53.245Z,5.75
2023-04-07T21:26:42.007Z,6.50
2023-04-07T21:29:32.346Z,5.63
2023-04-07T21:32:21.146Z,6.18
2023-04-07T21:35:13.288Z,5.83
2023-04-07T21:38:02.200Z,5.72
2023-04-07T21:40:52.414Z,6.18
2023-04-07T21:43:41.257Z,6.20
2023-04-07T21:46:30.244Z,6.37
2023-04-07T21:49:22.263Z,5.60
2023-04-07T21:52:11.109Z,6.27
2023-04-07T21:54:59.858Z,6.73
2023-04-07T21:57:50.911Z,5.85
2023-04-07T22:00:39.879Z,6.00
2023-04-07T22:03:29.677Z,6.20
2023-04-07T22:06:18.922Z,6.20
2023-04-07T22:09:08.541Z,6.15
2023-04-07T22:11:57.507Z,6.28
2023-04-07T22:14:47.596Z,6.47
2023-04-07T22:17:36.913Z,5.93
2023-04-07T22:20:27.248Z,6.23
2023-04-07T22:23:16.043Z,6.40
2023-04-07T22:26:06.027Z,6.40
2023-04-07T22:28:54.755Z,6.60
2023-04-07T22:31:44.844Z,6.28
2023-04-07T22:34:33.774Z,6.50
2023-04-07T22:37:22.551Z,6.95
2023-04-07T22:40:12.469Z,7.20
2023-04-07T22:43:01.462Z,7.23
2023-04-07T22:45:50.239Z,7.97
2023-04-07T22:48:40.577Z,7.80
2023-04-07T22:51:30.223Z,8.20
2023-04-07T22:54:19.634Z,7.97
2023-04-07T22:57:08.533Z,8.43
2023-04-07T22:59:57.392Z,7.90
2023-04-07T23:02:46.886Z,8.20
2023-04-07T23:05:37.300Z,8.30
2023-04-07T23:08:26.265Z,8.90
2023-04-07T23:11:15.838Z,9.35
2023-04-07T23:14:06.296Z,9.40
2023-04-07T23:16:56.338Z,9.70
2023-04-07T23:19:45.437Z,9.68
2023-04-07T23:22:36.163Z,9.80
2023-04-07T23:25:25.382Z,9.73
2023-04-07T23:28:14.409Z,10.17
2023-04-07T23:31:03.750Z,10.60
2023-04-07T23:33:52.595Z,10.27
2023-04-07T23:36:42.191Z,11.13
2023-04-07T23:39:32.431Z,11.70
2023-04-07T23:42:21.136Z,11.57
2023-04-07T23:45:10.860Z,11.30
2023-04-07T23:47:59.737Z,11.37
2023-04-07T23:50:51.424Z,12.03
2023-04-07T23:53:40.105Z,12.02
2023-04-07T23:56:30.296Z,10.95
2023-04-07T23:59:19.107Z,11.10
